sensor_id;sensor_type;location;lat;lon;timestamp;P1;durP1;ratioP1;P2;durP2;ratioP2
13816;SDS011;6979;52.116;5.286;2023-09-19T00:00:55;3.63;;;2.13;;
13816;SDS011;6979;52.116;5.286;2023-09-19T00:03:22;4.30;;;2.03;;
13816;SDS011;6979;52.116;5.286;2023-09-19T00:05:51;2.33;;;1.77;;
13816;SDS011;6979;52.116;5.286;2023-09-19T00:08:18;5.30;;;2.10;;
13816;SDS011;6979;52.116;5.286;2023-09-19T00:10:48;1.80;;;1.40;;
13816;SDS011;6979;52.116;5.286;2023-09-19T00:13:15;3.73;;;1.97;;
13816;SDS011;6979;52.116;5.286;2023-09-19T00:15:42;6.60;;;2.30;;
13816;SDS011;6979;52.116;5.286;2023-09-19T00:18:13;2.80;;;1.60;;
13816;SDS011;6979;52.116;5.286;2023-09-19T00:20:42;3.53;;;1.80;;
13816;SDS011;6979;52.116;5.286;2023-09-19T00:23:15;3.00;;;1.97;;
13816;SDS011;6979;52.116;5.286;2023-09-19T00:25:42;3.63;;;1.60;;
13816;SDS011;6979;52.116;5.286;2023-09-19T00:28:10;2.60;;;2.00;;
13816;SDS011;6979;52.116;5.286;2023-09-19T00:30:37;4.27;;;1.80;;
13816;SDS011;6979;52.116;5.286;2023-09-19T00:33:04;3.33;;;1.77;;
13816;SDS011;6979;52.116;5.286;2023-09-19T00:35:33;4.37;;;2.10;;
13816;SDS011;6979;52.116;5.286;2023-09-19T00:38:00;4.43;;;2.00;;
13816;SDS011;6979;52.116;5.286;2023-09-19T00:40:28;4.23;;;2.13;;
13816;SDS011;6979;52.116;5.286;2023-09-19T00:42:57;3.63;;;1.57;;
13816;SDS011;6979;52.116;5.286;2023-09-19T00:45:25;3.43;;;1.90;;
13816;SDS011;6979;52.116;5.286;2023-09-19T00:47:53;3.73;;;1.70;;
13816;SDS011;6979;52.116;5.286;2023-09-19T00:50:22;2.27;;;1.40;;
13816;SDS011;6979;52.116;5.286;2023-09-19T00:52:53;4.50;;;2.10;;
13816;SDS011;6979;52.116;5.286;2023-09-19T00:55:22;1.70;;;1.60;;
13816;SDS011;6979;52.116;5.286;2023-09-19T00:57:51;2.23;;;2.00;;
13816;SDS011;6979;52.116;5.286;2023-09-19T01:00:21;2.40;;;1.50;;
13816;SDS011;6979;52.116;5.286;2023-09-19T01:02:48;3.30;;;1.90;;
13816;SDS011;6979;52.116;5.286;2023-09-19T01:05:15;5.10;;;2.33;;
13816;SDS011;6979;52.116;5.286;2023-09-19T01:07:44;5.30;;;2.20;;
13816;SDS011;6979;52.116;5.286;2023-09-19T01:10:18;6.07;;;1.43;;
13816;SDS011;6979;52.116;5.286;2023-09-19T01:12:51;4.37;;;1.60;;
13816;SDS011;6979;52.116;5.286;2023-09-19T01:15:32;3.10;;;1.47;;
13816;SDS011;6979;52.116;5.286;2023-09-19T01:18:11;2.83;;;1.80;;
13816;SDS011;6979;52.116;5.286;2023-09-19T01:20:50;4.17;;;1.90;;
13816;SDS011;6979;52.116;5.286;2023-09-19T01:23:23;3.73;;;1.80;;
13816;SDS011;6979;52.116;5.286;2023-09-19T01:26:04;3.87;;;1.90;;
13816;SDS011;6979;52.116;5.286;2023-09-19T01:28:42;3.07;;;1.87;;
13816;SDS011;6979;52.116;5.286;2023-09-19T01:31:21;4.23;;;1.80;;
13816;SDS011;6979;52.116;5.286;2023-09-19T01:33:56;4.20;;;1.77;;
13816;SDS011;6979;52.116;5.286;2023-09-19T01:36:26;4.03;;;1.87;;
13816;SDS011;6979;52.116;5.286;2023-09-19T01:38:59;3.63;;;1.93;;
13816;SDS011;6979;52.116;5.286;2023-09-19T01:41:37;3.00;;;1.90;;
13816;SDS011;6979;52.116;5.286;2023-09-19T01:44:17;2.67;;;2.30;;
13816;SDS011;6979;52.116;5.286;2023-09-19T01:46:50;2.10;;;1.90;;
13816;SDS011;6979;52.116;5.286;2023-09-19T01:49:22;3.80;;;2.10;;
13816;SDS011;6979;52.116;5.286;2023-09-19T01:51:56;3.97;;;1.87;;
13816;SDS011;6979;52.116;5.286;2023-09-19T01:54:30;2.00;;;1.53;;
13816;SDS011;6979;52.116;5.286;2023-09-19T01:57:04;3.30;;;1.70;;
13816;SDS011;6979;52.116;5.286;2023-09-19T01:59:37;4.33;;;1.90;;
13816;SDS011;6979;52.116;5.286;2023-09-19T02:02:13;3.47;;;1.70;;
13816;SDS011;6979;52.116;5.286;2023-09-19T02:04:41;3.57;;;1.80;;
13816;SDS011;6979;52.116;5.286;2023-09-19T02:07:08;3.50;;;2.30;;
13816;SDS011;6979;52.116;5.286;2023-09-19T02:09:35;5.63;;;2.30;;
13816;SDS011;6979;52.116;5.286;2023-09-19T02:12:04;3.40;;;2.30;;
13816;SDS011;6979;52.116;5.286;2023-09-19T02:14:32;4.00;;;1.80;;
13816;SDS011;6979;52.116;5.286;2023-09-19T02:17:02;4.53;;;2.00;;
13816;SDS011;6979;52.116;5.286;2023-09-19T02:19:32;3.13;;;2.00;;
13816;SDS011;6979;52.116;5.286;2023-09-19T02:21:59;4.53;;;2.00;;
13816;SDS011;6979;52.116;5.286;2023-09-19T02:24:28;3.30;;;2.30;;
13816;SDS011;6979;52.116;5.286;2023-09-19T02:26:56;5.77;;;1.87;;
13816;SDS011;6979;52.116;5.286;2023-09-19T02:29:24;4.50;;;2.17;;
13816;SDS011;6979;52.116;5.286;2023-09-19T02:31:53;6.13;;;2.77;;
13816;SDS011;6979;52.116;5.286;2023-09-19T02:34:21;4.27;;;1.93;;
13816;SDS011;6979;52.116;5.286;2023-09-19T02:36:51;7.13;;;2.37;;
13816;SDS011;6979;52.116;5.286;2023-09-19T02:39:18;5.07;;;2.50;;
13816;SDS011;6979;52.116;5.286;2023-09-19T02:41:45;4.20;;;2.27;;
13816;SDS011;6979;52.116;5.286;2023-09-19T02:44:12;5.27;;;2.37;;
13816;SDS011;6979;52.116;5.286;2023-09-19T02:46:39;7.97;;;2.43;;
13816;SDS011;6979;52.116;5.286;2023-09-19T02:49:07;7.80;;;2.53;;
13816;SDS011;6979;52.116;5.286;2023-09-19T02:51:34;3.83;;;1.97;;
13816;SDS011;6979;52.116;5.286;2023-09-19T02:54:02;5.93;;;2.50;;
13816;SDS011;6979;52.116;5.286;2023-09-19T02:56:31;6.03;;;2.63;;
13816;SDS011;6979;52.116;5.286;2023-09-19T02:58:58;6.77;;;2.83;;
13816;SDS011;6979;52.116;5.286;2023-09-19T03:01:25;5.27;;;2.60;;
13816;SDS011;6979;52.116;5.286;2023-09-19T03:03:53;5.20;;;2.30;;
13816;SDS011;6979;52.116;5.286;2023-09-19T03:06:20;5.57;;;2.47;;
13816;SDS011;6979;52.116;5.286;2023-09-19T03:08:47;7.10;;;2.67;;
13816;SDS011;6979;52.116;5.286;2023-09-19T03:11:18;5.93;;;2.60;;
13816;SDS011;6979;52.116;5.286;2023-09-19T03:13:50;5.50;;;2.90;;
13816;SDS011;6979;52.116;5.286;2023-09-19T03:16:19;9.20;;;2.40;;
13816;SDS011;6979;52.116;5.286;2023-09-19T03:18:49;6.10;;;2.50;;
13816;SDS011;6979;52.116;5.286;2023-09-19T03:21:16;4.40;;;2.77;;
13816;SDS011;6979;52.116;5.286;2023-09-19T03:23:44;7.00;;;3.03;;
13816;SDS011;6979;52.116;5.286;2023-09-19T03:26:12;8.97;;;2.70;;
13816;SDS011;6979;52.116;5.286;2023-09-19T03:28:42;7.77;;;2.43;;
13816;SDS011;6979;52.116;5.286;2023-09-19T03:31:11;5.40;;;2.30;;
13816;SDS011;6979;52.116;5.286;2023-09-19T03:33:38;4.80;;;2.60;;
13816;SDS011;6979;52.116;5.286;2023-09-19T03:36:06;8.27;;;2.73;;
13816;SDS011;6979;52.116;5.286;2023-09-19T03:38:33;8.30;;;2.83;;
13816;SDS011;6979;52.116;5.286;2023-09-19T03:41:00;7.40;;;3.20;;
13816;SDS011;6979;52.116;5.286;2023-09-19T03:43:27;6.57;;;2.47;;
13816;SDS011;6979;52.116;5.286;2023-09-19T03:45:55;6.17;;;2.30;;
13816;SDS011;6979;52.116;5.286;2023-09-19T03:48:23;7.33;;;2.90;;
13816;SDS011;6979;52.116;5.286;2023-09-19T03:50:51;6.87;;;2.53;;
13816;SDS011;6979;52.116;5.286;2023-09-19T03:53:19;8.47;;;2.43;;
13816;SDS011;6979;52.116;5.286;2023-09-19T03:55:45;5.50;;;3.00;;
13816;SDS011;6979;52.116;5.286;2023-09-19T03:58:12;6.30;;;2.23;;
13816;SDS011;6979;52.116;5.286;2023-09-19T04:00:39;8.13;;;3.40;;
13816;SDS011;6979;52.116;5.286;2023-09-19T04:03:08;6.33;;;2.87;;
13816;SDS011;6979;52.116;5.286;2023-09-19T04:05:44;5.93;;;2.40;;
13816;SDS011;6979;52.116;5.286;2023-09-19T04:08:13;6.03;;;2.97;;
13816;SDS011;6979;52.116;5.286;2023-09-19T04:10:41;8.27;;;3.00;;
13816;SDS011;6979;52.116;5.286;2023-09-19T04:13:09;6.07;;;2.53;;
13816;SDS011;6979;52.116;5.286;2023-09-19T04:15:36;4.30;;;2.47;;
13816;SDS011;6979;52.116;5.286;2023-09-19T04:18:05;6.50;;;2.67;;
13816;SDS011;6979;52.116;5.286;2023-09-19T04:20:33;4.97;;;2.13;;
13816;SDS011;6979;52.116;5.286;2023-09-19T04:23:00;6.33;;;4.60;;
13816;SDS011;6979;52.116;5.286;2023-09-19T04:25:27;4.03;;;2.47;;
13816;SDS011;6979;52.116;5.286;2023-09-19T04:27:54;4.27;;;2.67;;
13816;SDS011;6979;52.116;5.286;2023-09-19T04:30:21;9.33;;;2.90;;
13816;SDS011;6979;52.116;5.286;2023-09-19T04:32:48;4.87;;;2.07;;
13816;SDS011;6979;52.116;5.286;2023-09-19T04:35:16;4.30;;;2.33;;
13816;SDS011;6979;52.116;5.286;2023-09-19T04:37:44;6.53;;;2.67;;
13816;SDS011;6979;52.116;5.286;2023-09-19T04:40:14;7.30;;;2.77;;
13816;SDS011;6979;52.116;5.286;2023-09-19T04:42:42;5.03;;;2.03;;
13816;SDS011;6979;52.116;5.286;2023-09-19T04:45:10;4.30;;;2.60;;
13816;SDS011;6979;52.116;5.286;2023-09-19T04:47:38;4.07;;;2.80;;
13816;SDS011;6979;52.116;5.286;2023-09-19T04:50:06;7.40;;;2.93;;
13816;SDS011;6979;52.116;5.286;2023-09-19T04:52:39;5.87;;;2.70;;
13816;SDS011;6979;52.116;5.286;2023-09-19T04:55:11;8.17;;;3.00;;
13816;SDS011;6979;52.116;5.286;2023-09-19T04:57:41;7.07;;;2.40;;
13816;SDS011;6979;52.116;5.286;2023-09-19T05:00:10;9.43;;;2.70;;
13816;SDS011;6979;52.116;5.286;2023-09-19T05:02:39;4.53;;;2.27;;
13816;SDS011;6979;52.116;5.286;2023-09-19T05:05:07;8.87;;;3.00;;
13816;SDS011;6979;52.116;5.286;2023-09-19T05:07:35;7.87;;;2.80;;
13816;SDS011;6979;52.116;5.286;2023-09-19T05:10:02;5.37;;;2.70;;
13816;SDS011;6979;52.116;5.286;2023-09-19T05:12:33;6.30;;;2.33;;
13816;SDS011;6979;52.116;5.286;2023-09-19T05:15:01;4.93;;;2.70;;
13816;SDS011;6979;52.116;5.286;2023-09-19T05:17:28;4.37;;;2.83;;
13816;SDS011;6979;52.116;5.286;2023-09-19T05:19:56;4.73;;;2.67;;
13816;SDS011;6979;52.116;5.286;2023-09-19T05:22:23;3.23;;;2.30;;
13816;SDS011;6979;52.116;5.286;2023-09-19T05:24:50;8.43;;;2.80;;
13816;SDS011;6979;52.116;5.286;2023-09-19T05:27:18;9.07;;;3.43;;
13816;SDS011;6979;52.116;5.286;2023-09-19T05:29:47;6.47;;;2.40;;
13816;SDS011;6979;52.116;5.286;2023-09-19T05:32:16;5.53;;;4.00;;
13816;SDS011;6979;52.116;5.286;2023-09-19T05:34:44;4.73;;;2.40;;
13816;SDS011;6979;52.116;5.286;2023-09-19T05:37:12;7.03;;;2.73;;
13816;SDS011;6979;52.116;5.286;2023-09-19T05:39:41;5.83;;;2.80;;
13816;SDS011;6979;52.116;5.286;2023-09-19T05:42:08;10.07;;;6.33;;
13816;SDS011;6979;52.116;5.286;2023-09-19T05:44:35;5.90;;;3.63;;
13816;SDS011;6979;52.116;5.286;2023-09-19T05:47:03;7.20;;;2.80;;
13816;SDS011;6979;52.116;5.286;2023-09-19T05:49:30;6.67;;;3.10;;
13816;SDS011;6979;52.116;5.286;2023-09-19T05:51:58;5.83;;;2.80;;
13816;SDS011;6979;52.116;5.286;2023-09-19T05:54:26;5.77;;;2.60;;
13816;SDS011;6979;52.116;5.286;2023-09-19T05:56:53;4.67;;;2.80;;
13816;SDS011;6979;52.116;5.286;2023-09-19T05:59:20;5.53;;;3.03;;
13816;SDS011;6979;52.116;5.286;2023-09-19T06:01:47;6.87;;;2.83;;
13816;SDS011;6979;52.116;5.286;2023-09-19T06:04:16;6.90;;;2.70;;
13816;SDS011;6979;52.116;5.286;2023-09-19T06:06:44;8.83;;;3.07;;
13816;SDS011;6979;52.116;5.286;2023-09-19T06:09:13;4.67;;;2.47;;
13816;SDS011;6979;52.116;5.286;2023-09-19T06:11:41;4.30;;;2.70;;
13816;SDS011;6979;52.116;5.286;2023-09-19T06:14:08;7.03;;;2.57;;
13816;SDS011;6979;52.116;5.286;2023-09-19T06:16:35;7.23;;;2.87;;
13816;SDS011;6979;52.116;5.286;2023-09-19T06:19:03;6.70;;;2.93;;
13816;SDS011;6979;52.116;5.286;2023-09-19T06:21:33;6.33;;;3.20;;
13816;SDS011;6979;52.116;5.286;2023-09-19T06:24:00;8.03;;;2.70;;
13816;SDS011;6979;52.116;5.286;2023-09-19T06:26:29;6.83;;;2.73;;
13816;SDS011;6979;52.116;5.286;2023-09-19T06:28:56;5.57;;;3.20;;
13816;SDS011;6979;52.116;5.286;2023-09-19T06:31:22;8.00;;;3.97;;
13816;SDS011;6979;52.116;5.286;2023-09-19T06:33:51;6.90;;;3.07;;
13816;SDS011;6979;52.116;5.286;2023-09-19T06:36:18;12.73;;;3.67;;
13816;SDS011;6979;52.116;5.286;2023-09-19T06:38:46;5.70;;;3.10;;
13816;SDS011;6979;52.116;5.286;2023-09-19T06:41:13;7.07;;;2.80;;
13816;SDS011;6979;52.116;5.286;2023-09-19T06:43:42;7.17;;;2.93;;
13816;SDS011;6979;52.116;5.286;2023-09-19T06:46:09;7.10;;;3.40;;
13816;SDS011;6979;52.116;5.286;2023-09-19T06:48:38;7.77;;;3.43;;
13816;SDS011;6979;52.116;5.286;2023-09-19T06:51:04;8.70;;;3.50;;
13816;SDS011;6979;52.116;5.286;2023-09-19T06:53:33;9.07;;;2.93;;
13816;SDS011;6979;52.116;5.286;2023-09-19T06:56:02;7.13;;;3.03;;
13816;SDS011;6979;52.116;5.286;2023-09-19T06:58:30;8.60;;;2.87;;
13816;SDS011;6979;52.116;5.286;2023-09-19T07:00:57;8.63;;;3.03;;
13816;SDS011;6979;52.116;5.286;2023-09-19T07:03:24;7.80;;;2.93;;
13816;SDS011;6979;52.116;5.286;2023-09-19T07:05:53;7.70;;;3.03;;
13816;SDS011;6979;52.116;5.286;2023-09-19T07:08:21;9.33;;;3.23;;
13816;SDS011;6979;52.116;5.286;2023-09-19T07:10:48;7.97;;;2.70;;
13816;SDS011;6979;52.116;5.286;2023-09-19T07:13:16;9.83;;;4.10;;
13816;SDS011;6979;52.116;5.286;2023-09-19T07:15:43;6.97;;;3.17;;
13816;SDS011;6979;52.116;5.286;2023-09-19T07:18:13;5.90;;;2.50;;
13816;SDS011;6979;52.116;5.286;2023-09-19T07:20:41;5.27;;;2.40;;
13816;SDS011;6979;52.116;5.286;2023-09-19T07:23:14;6.80;;;2.97;;
13816;SDS011;6979;52.116;5.286;2023-09-19T07:25:41;7.63;;;3.03;;
13816;SDS011;6979;52.116;5.286;2023-09-19T07:28:08;10.97;;;3.20;;
13816;SDS011;6979;52.116;5.286;2023-09-19T07:30:37;8.50;;;3.27;;
13816;SDS011;6979;52.116;5.286;2023-09-19T07:33:06;6.50;;;3.37;;
13816;SDS011;6979;52.116;5.286;2023-09-19T07:35:36;5.83;;;2.63;;
13816;SDS011;6979;52.116;5.286;2023-09-19T07:38:04;7.97;;;3.20;;
13816;SDS011;6979;52.116;5.286;2023-09-19T07:40:31;5.97;;;3.20;;
13816;SDS011;6979;52.116;5.286;2023-09-19T07:42:58;5.00;;;2.37;;
13816;SDS011;6979;52.116;5.286;2023-09-19T07:45:26;8.10;;;3.53;;
13816;SDS011;6979;52.116;5.286;2023-09-19T07:47:56;9.60;;;7.60;;
13816;SDS011;6979;52.116;5.286;2023-09-19T07:50:23;7.03;;;3.57;;
13816;SDS011;6979;52.116;5.286;2023-09-19T07:52:51;8.30;;;3.80;;
13816;SDS011;6979;52.116;5.286;2023-09-19T07:55:20;6.67;;;2.87;;
13816;SDS011;6979;52.116;5.286;2023-09-19T07:57:50;6.97;;;3.67;;
13816;SDS011;6979;52.116;5.286;2023-09-19T08:00:18;7.07;;;3.50;;
13816;SDS011;6979;52.116;5.286;2023-09-19T08:02:44;12.83;;;3.97;;
13816;SDS011;6979;52.116;5.286;2023-09-19T08:05:14;10.07;;;2.90;;
13816;SDS011;6979;52.116;5.286;2023-09-19T08:07:42;5.87;;;2.83;;
13816;SDS011;6979;52.116;5.286;2023-09-19T08:10:10;7.47;;;3.50;;
13816;SDS011;6979;52.116;5.286;2023-09-19T08:12:38;6.93;;;3.50;;
13816;SDS011;6979;52.116;5.286;2023-09-19T08:15:11;7.70;;;3.30;;
13816;SDS011;6979;52.116;5.286;2023-09-19T08:17:39;6.73;;;2.97;;
13816;SDS011;6979;52.116;5.286;2023-09-19T08:20:07;9.43;;;3.60;;
13816;SDS011;6979;52.116;5.286;2023-09-19T08:22:42;10.63;;;3.40;;
13816;SDS011;6979;52.116;5.286;2023-09-19T08:25:11;6.43;;;2.70;;
13816;SDS011;6979;52.116;5.286;2023-09-19T08:27:38;11.87;;;3.73;;
13816;SDS011;6979;52.116;5.286;2023-09-19T08:30:05;8.63;;;3.50;;
13816;SDS011;6979;52.116;5.286;2023-09-19T08:32:33;9.87;;;3.63;;
13816;SDS011;6979;52.116;5.286;2023-09-19T08:35:00;6.77;;;3.33;;
13816;SDS011;6979;52.116;5.286;2023-09-19T08:37:27;8.70;;;3.53;;
13816;SDS011;6979;52.116;5.286;2023-09-19T08:39:55;9.93;;;3.40;;
13816;SDS011;6979;52.116;5.286;2023-09-19T08:42:22;7.97;;;3.07;;
13816;SDS011;6979;52.116;5.286;2023-09-19T08:44:50;8.53;;;3.10;;
13816;SDS011;6979;52.116;5.286;2023-09-19T08:47:20;6.93;;;3.90;;
13816;SDS011;6979;52.116;5.286;2023-09-19T08:50:01;6.13;;;3.23;;
13816;SDS011;6979;52.116;5.286;2023-09-19T08:52:41;7.40;;;3.13;;
13816;SDS011;6979;52.116;5.286;2023-09-19T08:55:11;4.97;;;3.03;;
13816;SDS011;6979;52.116;5.286;2023-09-19T08:57:46;8.03;;;3.00;;
13816;SDS011;6979;52.116;5.286;2023-09-19T09:00:15;9.17;;;3.73;;
13816;SDS011;6979;52.116;5.286;2023-09-19T09:02:45;6.73;;;3.00;;
13816;SDS011;6979;52.116;5.286;2023-09-19T09:05:14;10.07;;;3.93;;
13816;SDS011;6979;52.116;5.286;2023-09-19T09:07:47;7.20;;;2.80;;
13816;SDS011;6979;52.116;5.286;2023-09-19T09:10:18;6.83;;;3.17;;
13816;SDS011;6979;52.116;5.286;2023-09-19T09:12:47;6.37;;;3.00;;
13816;SDS011;6979;52.116;5.286;2023-09-19T09:15:16;9.33;;;3.13;;
13816;SDS011;6979;52.116;5.286;2023-09-19T09:17:46;6.97;;;2.83;;
13816;SDS011;6979;52.116;5.286;2023-09-19T09:20:15;6.27;;;2.90;;
13816;SDS011;6979;52.116;5.286;2023-09-19T09:22:50;8.13;;;3.10;;
13816;SDS011;6979;52.116;5.286;2023-09-19T09:25:20;5.30;;;2.67;;
13816;SDS011;6979;52.116;5.286;2023-09-19T09:27:58;7.33;;;3.00;;
13816;SDS011;6979;52.116;5.286;2023-09-19T09:30:33;6.60;;;3.13;;
13816;SDS011;6979;52.116;5.286;2023-09-19T09:33:09;4.30;;;2.83;;
13816;SDS011;6979;52.116;5.286;2023-09-19T09:35:37;6.87;;;2.30;;
13816;SDS011;6979;52.116;5.286;2023-09-19T09:38:13;6.47;;;2.73;;
13816;SDS011;6979;52.116;5.286;2023-09-19T09:40:47;5.40;;;2.77;;
13816;SDS011;6979;52.116;5.286;2023-09-19T09:43:29;8.60;;;2.97;;
13816;SDS011;6979;52.116;5.286;2023-09-19T09:46:14;12.03;;;3.20;;
13816;SDS011;6979;52.116;5.286;2023-09-19T09:49:00;6.10;;;2.70;;
13816;SDS011;6979;52.116;5.286;2023-09-19T09:51:43;6.67;;;2.57;;
13816;SDS011;6979;52.116;5.286;2023-09-19T09:54:22;6.90;;;2.93;;
13816;SDS011;6979;52.116;5.286;2023-09-19T09:56:57;12.07;;;3.63;;
13816;SDS011;6979;52.116;5.286;2023-09-19T09:59:44;8.03;;;4.27;;
13816;SDS011;6979;52.116;5.286;2023-09-19T10:02:16;7.27;;;2.70;;
13816;SDS011;6979;52.116;5.286;2023-09-19T10:04:50;5.13;;;2.80;;
13816;SDS011;6979;52.116;5.286;2023-09-19T10:07:27;6.37;;;2.97;;
13816;SDS011;6979;52.116;5.286;2023-09-19T10:10:03;8.00;;;3.17;;
13816;SDS011;6979;52.116;5.286;2023-09-19T10:12:41;6.87;;;3.57;;
13816;SDS011;6979;52.116;5.286;2023-09-19T10:15:11;5.57;;;2.50;;
13816;SDS011;6979;52.116;5.286;2023-09-19T10:17:41;7.17;;;2.73;;
13816;SDS011;6979;52.116;5.286;2023-09-19T10:20:13;13.03;;;3.27;;
13816;SDS011;6979;52.116;5.286;2023-09-19T10:23:03;6.43;;;2.93;;
13816;SDS011;6979;52.116;5.286;2023-09-19T10:25:36;8.17;;;3.47;;
13816;SDS011;6979;52.116;5.286;2023-09-19T10:28:06;7.93;;;3.10;;
13816;SDS011;6979;52.116;5.286;2023-09-19T10:30:37;6.63;;;2.67;;
13816;SDS011;6979;52.116;5.286;2023-09-19T10:33:08;6.67;;;2.60;;
13816;SDS011;6979;52.116;5.286;2023-09-19T10:35:37;4.00;;;2.37;;
13816;SDS011;6979;52.116;5.286;2023-09-19T10:38:09;7.47;;;3.43;;
13816;SDS011;6979;52.116;5.286;2023-09-19T10:40:37;4.97;;;2.17;;
13816;SDS011;6979;52.116;5.286;2023-09-19T10:43:11;5.53;;;2.40;;
13816;SDS011;6979;52.116;5.286;2023-09-19T10:45:40;4.77;;;2.07;;
13816;SDS011;6979;52.116;5.286;2023-09-19T10:48:09;3.97;;;1.93;;
13816;SDS011;6979;52.116;5.286;2023-09-19T10:50:41;4.67;;;2.50;;
13816;SDS011;6979;52.116;5.286;2023-09-19T10:53:12;6.83;;;2.67;;
13816;SDS011;6979;52.116;5.286;2023-09-19T10:55:40;4.83;;;2.20;;
13816;SDS011;6979;52.116;5.286;2023-09-19T10:58:25;4.10;;;2.33;;
13816;SDS011;6979;52.116;5.286;2023-09-19T11:00:54;6.40;;;2.80;;
13816;SDS011;6979;52.116;5.286;2023-09-19T11:03:22;7.83;;;2.40;;
13816;SDS011;6979;52.116;5.286;2023-09-19T11:06:05;5.87;;;2.27;;
13816;SDS011;6979;52.116;5.286;2023-09-19T11:11:48;2.73;;;1.90;;
13816;SDS011;6979;52.116;5.286;2023-09-19T11:14:32;7.17;;;2.23;;
13816;SDS011;6979;52.116;5.286;2023-09-19T11:23:22;5.27;;;2.00;;
13816;SDS011;6979;52.116;5.286;2023-09-19T11:25:50;5.57;;;2.87;;
13816;SDS011;6979;52.116;5.286;2023-09-19T11:40:44;4.50;;;1.80;;
13816;SDS011;6979;52.116;5.286;2023-09-19T11:43:32;5.10;;;2.13;;
13816;SDS011;6979;52.116;5.286;2023-09-19T11:46:07;3.57;;;1.97;;
13816;SDS011;6979;52.116;5.286;2023-09-19T11:48:40;4.90;;;2.10;;
13816;SDS011;6979;52.116;5.286;2023-09-19T11:51:12;6.30;;;2.10;;
13816;SDS011;6979;52.116;5.286;2023-09-19T11:53:47;3.53;;;1.40;;
13816;SDS011;6979;52.116;5.286;2023-09-19T11:56:15;3.03;;;1.53;;
13816;SDS011;6979;52.116;5.286;2023-09-19T11:58:44;6.37;;;1.93;;
13816;SDS011;6979;52.116;5.286;2023-09-19T12:01:14;3.03;;;1.50;;
13816;SDS011;6979;52.116;5.286;2023-09-19T12:03:47;2.83;;;1.50;;
13816;SDS011;6979;52.116;5.286;2023-09-19T12:06:20;3.47;;;1.43;;
13816;SDS011;6979;52.116;5.286;2023-09-19T12:08:49;2.90;;;1.40;;
13816;SDS011;6979;52.116;5.286;2023-09-19T12:11:16;4.07;;;1.50;;
13816;SDS011;6979;52.116;5.286;2023-09-19T12:13:45;4.43;;;1.50;;
13816;SDS011;6979;52.116;5.286;2023-09-19T12:16:14;2.70;;;1.80;;
13816;SDS011;6979;52.116;5.286;2023-09-19T12:18:42;2.50;;;1.50;;
13816;SDS011;6979;52.116;5.286;2023-09-19T12:21:28;3.53;;;1.43;;
13816;SDS011;6979;52.116;5.286;2023-09-19T12:23:57;3.13;;;1.93;;
13816;SDS011;6979;52.116;5.286;2023-09-19T12:26:37;4.13;;;1.67;;
13816;SDS011;6979;52.116;5.286;2023-09-19T12:29:10;4.27;;;1.33;;
13816;SDS011;6979;52.116;5.286;2023-09-19T12:31:47;3.40;;;1.60;;
13816;SDS011;6979;52.116;5.286;2023-09-19T12:34:17;4.03;;;1.73;;
13816;SDS011;6979;52.116;5.286;2023-09-19T12:36:47;3.23;;;1.50;;
13816;SDS011;6979;52.116;5.286;2023-09-19T12:39:23;5.10;;;1.60;;
13816;SDS011;6979;52.116;5.286;2023-09-19T12:41:52;4.43;;;1.77;;
13816;SDS011;6979;52.116;5.286;2023-09-19T12:44:19;4.33;;;1.83;;
13816;SDS011;6979;52.116;5.286;2023-09-19T12:46:50;3.43;;;1.30;;
13816;SDS011;6979;52.116;5.286;2023-09-19T12:49:20;2.57;;;1.43;;
13816;SDS011;6979;52.116;5.286;2023-09-19T12:51:49;4.60;;;2.33;;
13816;SDS011;6979;52.116;5.286;2023-09-19T12:54:23;5.17;;;2.13;;
13816;SDS011;6979;52.116;5.286;2023-09-19T12:56:51;6.77;;;1.83;;
13816;SDS011;6979;52.116;5.286;2023-09-19T12:59:28;3.90;;;1.67;;
13816;SDS011;6979;52.116;5.286;2023-09-19T13:02:03;4.10;;;1.60;;
13816;SDS011;6979;52.116;5.286;2023-09-19T13:04:32;3.03;;;1.67;;
13816;SDS011;6979;52.116;5.286;2023-09-19T13:07:06;5.77;;;1.97;;
13816;SDS011;6979;52.116;5.286;2023-09-19T13:09:34;2.60;;;1.37;;
13816;SDS011;6979;52.116;5.286;2023-09-19T13:12:01;3.73;;;1.73;;
13816;SDS011;6979;52.116;5.286;2023-09-19T13:14:29;2.60;;;1.43;;
13816;SDS011;6979;52.116;5.286;2023-09-19T13:16:59;3.47;;;1.43;;
13816;SDS011;6979;52.116;5.286;2023-09-19T13:19:37;3.17;;;2.13;;
13816;SDS011;6979;52.116;5.286;2023-09-19T13:25:05;3.07;;;1.50;;
13816;SDS011;6979;52.116;5.286;2023-09-19T13:27:33;3.07;;;1.70;;
13816;SDS011;6979;52.116;5.286;2023-09-19T13:30:00;3.60;;;1.77;;
13816;SDS011;6979;52.116;5.286;2023-09-19T13:32:27;4.73;;;2.23;;
13816;SDS011;6979;52.116;5.286;2023-09-19T13:34:56;3.70;;;1.40;;
13816;SDS011;6979;52.116;5.286;2023-09-19T13:37:23;5.20;;;1.40;;
13816;SDS011;6979;52.116;5.286;2023-09-19T13:39:52;3.53;;;1.63;;
13816;SDS011;6979;52.116;5.286;2023-09-19T13:42:19;1.83;;;1.40;;
13816;SDS011;6979;52.116;5.286;2023-09-19T13:44:47;4.30;;;1.10;;
13816;SDS011;6979;52.116;5.286;2023-09-19T13:47:14;2.03;;;1.30;;
13816;SDS011;6979;52.116;5.286;2023-09-19T13:49:41;2.70;;;1.30;;
13816;SDS011;6979;52.116;5.286;2023-09-19T13:52:10;3.77;;;1.20;;
13816;SDS011;6979;52.116;5.286;2023-09-19T13:54:38;2.03;;;1.40;;
13816;SDS011;6979;52.116;5.286;2023-09-19T13:57:07;2.27;;;1.40;;
13816;SDS011;6979;52.116;5.286;2023-09-19T13:59:35;1.17;;;1.07;;
13816;SDS011;6979;52.116;5.286;2023-09-19T14:02:02;4.07;;;1.40;;
13816;SDS011;6979;52.116;5.286;2023-09-19T14:04:30;1.80;;;1.20;;
13816;SDS011;6979;52.116;5.286;2023-09-19T14:06:59;2.53;;;1.37;;
13816;SDS011;6979;52.116;5.286;2023-09-19T14:09:26;2.23;;;1.30;;
13816;SDS011;6979;52.116;5.286;2023-09-19T14:11:53;1.97;;;1.30;;
13816;SDS011;6979;52.116;5.286;2023-09-19T14:14:21;4.00;;;3.60;;
13816;SDS011;6979;52.116;5.286;2023-09-19T14:16:48;2.93;;;1.90;;
13816;SDS011;6979;52.116;5.286;2023-09-19T14:19:16;2.73;;;1.27;;
13816;SDS011;6979;52.116;5.286;2023-09-19T14:21:42;3.20;;;1.63;;
13816;SDS011;6979;52.116;5.286;2023-09-19T14:24:09;1.97;;;1.73;;
13816;SDS011;6979;52.116;5.286;2023-09-19T14:26:37;2.27;;;2.00;;
13816;SDS011;6979;52.116;5.286;2023-09-19T14:29:04;3.57;;;2.10;;
13816;SDS011;6979;52.116;5.286;2023-09-19T14:31:37;3.47;;;1.70;;
13816;SDS011;6979;52.116;5.286;2023-09-19T14:34:05;4.70;;;1.90;;
13816;SDS011;6979;52.116;5.286;2023-09-19T14:36:35;3.67;;;1.90;;
13816;SDS011;6979;52.116;5.286;2023-09-19T14:39:02;3.63;;;2.03;;
13816;SDS011;6979;52.116;5.286;2023-09-19T14:41:29;5.50;;;1.90;;
13816;SDS011;6979;52.116;5.286;2023-09-19T14:43:56;2.20;;;2.00;;
13816;SDS011;6979;52.116;5.286;2023-09-19T14:46:23;5.80;;;3.40;;
13816;SDS011;6979;52.116;5.286;2023-09-19T14:48:52;3.07;;;1.90;;
13816;SDS011;6979;52.116;5.286;2023-09-19T14:51:19;4.60;;;2.40;;
13816;SDS011;6979;52.116;5.286;2023-09-19T14:53:46;3.40;;;2.07;;
13816;SDS011;6979;52.116;5.286;2023-09-19T14:56:14;3.60;;;2.27;;
13816;SDS011;6979;52.116;5.286;2023-09-19T14:58:43;4.67;;;2.07;;
13816;SDS011;6979;52.116;5.286;2023-09-19T15:01:11;2.10;;;1.90;;
13816;SDS011;6979;52.116;5.286;2023-09-19T15:03:39;5.40;;;2.23;;
13816;SDS011;6979;52.116;5.286;2023-09-19T15:06:09;4.23;;;2.07;;
13816;SDS011;6979;52.116;5.286;2023-09-19T15:08:40;4.23;;;1.80;;
13816;SDS011;6979;52.116;5.286;2023-09-19T15:11:12;2.93;;;2.10;;
13816;SDS011;6979;52.116;5.286;2023-09-19T15:13:41;2.80;;;2.23;;
13816;SDS011;6979;52.116;5.286;2023-09-19T15:16:09;5.63;;;2.73;;
13816;SDS011;6979;52.116;5.286;2023-09-19T15:18:38;4.37;;;2.47;;
13816;SDS011;6979;52.116;5.286;2023-09-19T15:21:07;3.33;;;1.93;;
13816;SDS011;6979;52.116;5.286;2023-09-19T15:23:37;3.10;;;2.30;;
13816;SDS011;6979;52.116;5.286;2023-09-19T15:26:05;4.13;;;2.03;;
13816;SDS011;6979;52.116;5.286;2023-09-19T15:28:33;3.30;;;2.00;;
13816;SDS011;6979;52.116;5.286;2023-09-19T15:31:02;5.00;;;2.03;;
13816;SDS011;6979;52.116;5.286;2023-09-19T15:33:30;6.13;;;2.43;;
13816;SDS011;6979;52.116;5.286;2023-09-19T15:36:01;5.37;;;2.20;;
13816;SDS011;6979;52.116;5.286;2023-09-19T15:38:31;4.13;;;2.30;;
13816;SDS011;6979;52.116;5.286;2023-09-19T15:40:58;4.00;;;2.40;;